Time;durP1;ratioP1;P1;durP2;ratioP2;P2;SDS_P1;SDS_P2;PMS_P1;PMS_P2;Temp;Humidity;BMP_temperature;BMP_pressure;BME280_temperature;BME280_humidity;BME280_pressure;Samples;Min_cycle;Max_cycle;Signal;HPM_P1;HPM_P2
2022/05/02 00:00:09;;;;;;;2.25;1.70;;;8.80;99.90;;;;;;5048036;28;20026;-76
2022/05/02 00:02:36;;;;;;;5.05;2.38;;;8.80;99.90;;;;;;5032821;28;20044;-76
2022/05/02 00:05:05;;;;;;;4.20;1.92;;;8.80;99.90;;;;;;5033007;28;20033;-78
2022/05/02 00:07:31;;;;;;;5.47;1.95;;;8.80;99.90;;;;;;5031671;28;20022;-75
2022/05/02 00:09:56;;;;;;;3.45;1.88;;;8.80;99.90;;;;;;5032627;28;20033;-76
2022/05/02 00:12:23;;;;;;;2.85;1.60;;;8.80;99.90;;;;;;5031276;28;20049;-75
2022/05/02 00:14:48;;;;;;;4.10;2.45;;;8.80;99.90;;;;;;5032567;28;20025;-76
2022/05/02 00:17:15;;;;;;;5.45;2.25;;;8.80;99.90;;;;;;5031163;28;20076;-75
2022/05/02 00:19:40;;;;;;;3.97;1.45;;;8.80;99.90;;;;;;5032318;28;20037;-74
2022/05/02 00:22:06;;;;;;;3.17;1.90;;;8.80;99.90;;;;;;5031993;28;20044;-75
2022/05/02 00:24:32;;;;;;;2.83;1.65;;;8.80;99.90;;;;;;5032721;28;20075;-75
2022/05/02 00:26:58;;;;;;;3.50;1.95;;;8.80;99.90;;;;;;5030061;28;20033;-74
2022/05/02 00:29:24;;;;;;;3.55;2.28;;;8.80;99.90;;;;;;5031057;28;20080;-76
2022/05/02 00:31:50;;;;;;;3.72;2.05;;;8.80;99.90;;;;;;5032415;28;20030;-75
2022/05/02 00:34:16;;;;;;;2.60;1.50;;;8.80;99.90;;;;;;5030872;28;20037;-75
2022/05/02 00:36:42;;;;;;;2.63;1.40;;;8.80;99.90;;;;;;5032385;28;20050;-75
2022/05/02 00:39:08;;;;;;;8.05;2.33;;;8.80;99.90;;;;;;5039376;28;20041;-74
2022/05/02 00:41:34;;;;;;;13.10;2.25;;;8.80;99.90;;;;;;5031596;28;20042;-74
2022/05/02 00:43:59;;;;;;;3.70;1.73;;;8.80;99.90;;;;;;5032108;28;20076;-75
2022/05/02 00:46:26;;;;;;;2.72;1.60;;;8.90;99.90;;;;;;5032174;28;20038;-75
2022/05/02 00:48:53;;;;;;;2.53;1.55;;;8.90;99.90;;;;;;5038630;28;20030;-75
2022/05/02 00:51:19;;;;;;;3.78;1.80;;;8.80;99.90;;;;;;5032112;28;20030;-75
2022/05/02 00:53:48;;;;;;;2.25;1.65;;;8.80;99.90;;;;;;5039404;28;20037;-76
2022/05/02 00:56:16;;;;;;;4.72;1.80;;;8.70;99.90;;;;;;5032057;28;20133;-74
2022/05/02 00:58:43;;;;;;;2.58;1.85;;;8.60;99.90;;;;;;5034616;28;20064;-75
2022/05/02 01:01:08;;;;;;;3.67;2.15;;;8.60;99.90;;;;;;5035861;28;20087;-75
2022/05/02 01:03:35;;;;;;;3.65;1.80;;;8.50;99.90;;;;;;5035480;28;20076;-76
2022/05/02 01:08:46;;;;;;;3.08;2.00;;;8.50;99.90;;;;;;5035975;28;20036;-76
2022/05/02 01:11:18;;;;;;;3.78;2.08;;;8.50;99.90;;;;;;5034381;28;20034;-76
2022/05/02 01:13:47;;;;;;;2.78;1.52;;;8.60;99.90;;;;;;5036332;28;20080;-76
2022/05/02 01:16:17;;;;;;;2.65;1.88;;;8.50;99.90;;;;;;5036489;28;20028;-76
2022/05/02 01:18:45;;;;;;;3.15;1.77;;;8.50;99.90;;;;;;5034565;28;20450;-75
2022/05/02 01:21:14;;;;;;;8.40;2.47;;;8.50;99.90;;;;;;5035608;28;20021;-75
2022/05/02 01:23:40;;;;;;;4.25;2.53;;;8.50;99.90;;;;;;5034198;28;20022;-76
2022/05/02 01:26:06;;;;;;;5.07;1.92;;;8.50;99.90;;;;;;5035673;28;20552;-76
2022/05/02 01:28:31;;;;;;;4.45;1.95;;;8.50;99.90;;;;;;5050415;28;20018;-75
2022/05/02 01:30:58;;;;;;;3.90;2.00;;;8.60;99.90;;;;;;5035223;28;20026;-74
2022/05/02 01:33:23;;;;;;;9.48;2.03;;;8.60;99.90;;;;;;5035272;28;20018;-75
2022/05/02 01:35:49;;;;;;;10.98;2.42;;;8.60;99.90;;;;;;5035629;28;20033;-75
2022/05/02 01:38:15;;;;;;;3.75;2.13;;;8.60;99.90;;;;;;5035230;28;20025;-75
2022/05/02 01:40:40;;;;;;;4.10;2.28;;;8.50;99.90;;;;;;5035434;28;20029;-74
2022/05/02 01:43:06;;;;;;;5.97;2.38;;;8.60;99.90;;;;;;5035030;28;20959;-75
2022/05/02 01:45:31;;;;;;;4.15;2.03;;;8.60;99.90;;;;;;5034705;28;20026;-74
2022/05/02 01:47:57;;;;;;;4.90;2.22;;;8.70;99.90;;;;;;5035215;28;20025;-75
2022/05/02 01:50:23;;;;;;;7.55;2.13;;;8.60;99.90;;;;;;5035221;28;20053;-75
2022/05/02 01:52:48;;;;;;;3.92;1.85;;;8.60;99.90;;;;;;5034804;28;20029;-75
2022/05/02 01:55:14;;;;;;;3.25;1.90;;;8.60;99.90;;;;;;5035091;28;20085;-75
2022/05/02 01:57:40;;;;;;;4.85;2.13;;;8.60;99.90;;;;;;5034997;28;20040;-75
2022/05/02 02:00:06;;;;;;;3.78;2.20;;;8.50;99.90;;;;;;5034683;28;20037;-75
2022/05/02 02:02:31;;;;;;;5.53;2.13;;;8.50;99.90;;;;;;5034723;28;20061;-75
2022/05/02 02:07:41;;;;;;;;;;;8.50;99.90;;;;;;5035380;28;20096;-75
2022/05/02 02:10:07;;;;;;;4.55;2.03;;;8.40;99.90;;;;;;5033617;28;19906;-74
2022/05/02 02:12:33;;;;;;;4.57;2.67;;;8.40;99.90;;;;;;5034246;28;20084;-75
2022/05/02 02:14:58;;;;;;;9.70;1.88;;;8.40;99.90;;;;;;5034666;28;20025;-74
2022/05/02 02:17:24;;;;;;;4.20;2.30;;;8.40;99.90;;;;;;5034626;28;20510;-75
2022/05/02 02:19:50;;;;;;;5.43;2.10;;;8.30;99.90;;;;;;5034198;28;20022;-77
2022/05/02 02:22:16;;;;;;;4.03;2.25;;;8.20;99.90;;;;;;5033416;28;20383;-76
2022/05/02 02:24:45;;;;;;;3.45;1.70;;;8.20;99.90;;;;;;5033831;28;20033;-75
2022/05/02 02:27:11;;;;;;;4.75;2.63;;;8.10;99.90;;;;;;5034249;28;20021;-75
2022/05/02 02:29:36;;;;;;;5.05;2.53;;;8.00;99.90;;;;;;5049450;28;20525;-74
2022/05/02 02:32:02;;;;;;;4.45;2.17;;;7.90;99.90;;;;;;5033015;28;20017;-75
2022/05/02 02:34:28;;;;;;;5.85;2.50;;;7.90;99.90;;;;;;5032592;28;20026;-75
2022/05/02 02:36:54;;;;;;;5.63;2.22;;;7.90;99.90;;;;;;5049694;28;20028;-75
2022/05/02 02:39:19;;;;;;;5.20;2.85;;;7.90;99.90;;;;;;5034114;28;20026;-75
2022/05/02 02:41:45;;;;;;;3.65;2.22;;;7.90;99.90;;;;;;5033483;28;20037;-75
2022/05/02 02:44:10;;;;;;;5.20;2.53;;;7.90;99.90;;;;;;5034238;28;20393;-75
2022/05/02 02:46:36;;;;;;;5.25;2.35;;;7.90;99.90;;;;;;5032481;28;20056;-75
2022/05/02 02:49:02;;;;;;;8.57;2.45;;;7.80;99.90;;;;;;5033563;28;20462;-75
2022/05/02 02:51:27;;;;;;;4.65;2.65;;;7.80;99.90;;;;;;5034288;28;20025;-75
2022/05/02 02:53:53;;;;;;;4.75;2.42;;;7.70;99.90;;;;;;5034161;28;20389;-75
2022/05/02 02:56:19;;;;;;;4.75;2.03;;;7.70;99.90;;;;;;5033152;28;20022;-76
2022/05/02 02:58:44;;;;;;;4.53;2.47;;;7.70;99.90;;;;;;5033811;28;20040;-75
2022/05/02 03:01:10;;;;;;;4.40;2.75;;;7.70;99.90;;;;;;5031581;28;20035;-76
2022/05/02 03:03:36;;;;;;;5.97;2.88;;;7.60;99.90;;;;;;5032794;28;20333;-75
2022/05/02 03:06:02;;;;;;;4.18;2.58;;;7.50;99.90;;;;;;5032006;28;20089;-75
2022/05/02 03:08:28;;;;;;;4.72;2.63;;;7.50;99.90;;;;;;5033195;28;20053;-74
2022/05/02 03:10:55;;;;;;;5.35;2.67;;;7.40;99.90;;;;;;5033278;28;20033;-76
2022/05/02 03:13:21;;;;;;;5.53;3.35;;;7.40;99.90;;;;;;5030972;28;20049;-75
2022/05/02 03:15:47;;;;;;;4.90;2.78;;;7.30;99.90;;;;;;5033407;28;20040;-75
2022/05/02 03:18:13;;;;;;;4.82;2.55;;;7.30;99.90;;;;;;5039507;28;20025;-75
2022/05/02 03:20:38;;;;;;;5.75;2.58;;;7.30;99.90;;;;;;5033596;28;20036;-75
2022/05/02 03:23:04;;;;;;;4.57;2.67;;;7.20;99.90;;;;;;5033283;28;20033;-74
2022/05/02 03:25:30;;;;;;;5.53;3.08;;;7.20;99.90;;;;;;5031628;28;20030;-75
2022/05/02 03:27:55;;;;;;;6.63;2.85;;;7.20;99.90;;;;;;5032733;28;20032;-76
2022/05/02 03:30:22;;;;;;;4.95;3.33;;;7.20;99.90;;;;;;5032943;28;20033;-77
2022/05/02 03:32:48;;;;;;;4.00;1.80;;;7.10;99.90;;;;;;5029091;28;20035;-75
2022/05/02 03:35:13;;;;;;;4.80;2.50;;;7.00;99.90;;;;;;5028603;28;20029;-75
2022/05/02 03:37:39;;;;;;;7.10;2.95;;;7.00;99.90;;;;;;5031290;28;20032;-76
2022/05/02 03:40:07;;;;;;;7.97;3.55;;;6.90;99.90;;;;;;5032698;28;20018;-76
2022/05/02 03:42:32;;;;;;;6.60;3.08;;;6.80;99.90;;;;;;5032752;28;20033;-76
2022/05/02 03:44:58;;;;;;;4.82;2.70;;;6.80;99.90;;;;;;5032797;28;20025;-76
2022/05/02 03:47:24;;;;;;;6.68;2.67;;;6.80;99.90;;;;;;5033080;28;20021;-76
2022/05/02 03:49:49;;;;;;;6.82;2.97;;;6.80;99.90;;;;;;5033259;28;20084;-76
2022/05/02 03:52:15;;;;;;;10.15;3.70;;;6.80;99.90;;;;;;5032481;28;20087;-77
2022/05/02 03:54:40;;;;;;;5.25;3.72;;;6.70;99.90;;;;;;5032928;28;20371;-76
2022/05/02 03:57:06;;;;;;;7.30;3.60;;;6.70;99.90;;;;;;5033049;28;20032;-76
2022/05/02 03:59:32;;;;;;;7.30;3.85;;;6.70;99.90;;;;;;5032521;28;20022;-75
2022/05/02 04:01:58;;;;;;;7.22;3.38;;;6.80;99.90;;;;;;5032531;28;20033;-76
2022/05/02 04:04:23;;;;;;;8.02;3.13;;;6.80;99.90;;;;;;5032874;28;20025;-75
2022/05/02 04:06:49;;;;;;;10.30;3.40;;;6.80;99.90;;;;;;5031693;28;20138;-76
2022/05/02 04:09:15;;;;;;;13.15;5.07;;;6.80;99.90;;;;;;5030913;28;20033;-75
2022/05/02 04:11:41;;;;;;;11.48;3.38;;;6.90;99.90;;;;;;5032466;28;20476;-75
2022/05/02 04:14:07;;;;;;;8.73;3.85;;;6.90;99.90;;;;;;5029522;28;20071;-75
2022/05/02 04:16:33;;;;;;;11.32;3.83;;;6.90;99.90;;;;;;5031529;28;20022;-76
2022/05/02 04:18:58;;;;;;;11.77;3.55;;;7.00;99.90;;;;;;5032456;28;20053;-74
2022/05/02 04:21:24;;;;;;;8.52;3.50;;;7.00;99.90;;;;;;5031275;28;20026;-76
2022/05/02 04:23:49;;;;;;;10.80;3.47;;;7.00;99.90;;;;;;5031667;28;20033;-76
2022/05/02 04:26:15;;;;;;;6.80;3.70;;;7.00;99.90;;;;;;5032333;28;20072;-75
2022/05/02 04:28:41;;;;;;;11.18;4.10;;;7.10;99.90;;;;;;5032086;28;20032;-74
2022/05/02 04:31:06;;;;;;;5.35;3.30;;;7.10;99.90;;;;;;5031318;28;20135;-75
2022/05/02 04:33:32;;;;;;;5.97;3.97;;;7.10;99.90;;;;;;5031434;28;20049;-74
2022/05/02 04:35:57;;;;;;;9.70;4.25;;;7.20;99.90;;;;;;5030828;28;20036;-75
2022/05/02 04:38:24;;;;;;;8.05;3.85;;;7.20;99.90;;;;;;5035633;28;20029;-75
2022/05/02 04:40:49;;;;;;;6.88;3.75;;;7.30;99.90;;;;;;5042504;28;20165;-75
2022/05/02 04:43:16;;;;;;;8.80;3.15;;;7.40;99.90;;;;;;5035044;28;20033;-75
2022/05/02 04:45:41;;;;;;;11.05;4.28;;;7.50;99.90;;;;;;5035956;28;20037;-75
2022/05/02 04:48:09;;;;;;;6.10;3.67;;;7.50;99.90;;;;;;5035826;28;20025;-74
2022/05/02 04:50:34;;;;;;;8.73;3.47;;;7.60;99.90;;;;;;5036049;28;20021;-74
2022/05/02 04:53:00;;;;;;;7.95;3.85;;;7.70;99.90;;;;;;5036177;28;20132;-74
2022/05/02 04:55:25;;;;;;;4.18;2.95;;;7.80;99.90;;;;;;5035879;28;20050;-74
2022/05/02 04:57:51;;;;;;;5.63;3.88;;;7.90;99.90;;;;;;5036002;28;20065;-74
2022/05/02 05:00:17;;;;;;;5.97;3.42;;;7.90;99.90;;;;;;5031827;28;20033;-74
2022/05/02 05:02:43;;;;;;;6.95;3.47;;;8.00;99.90;;;;;;5034643;28;20034;-73
2022/05/02 05:05:09;;;;;;;5.07;2.38;;;8.10;99.90;;;;;;5035776;28;20036;-74
2022/05/02 05:07:40;;;;;;;6.93;2.75;;;8.10;99.90;;;;;;5035164;28;20033;-75
2022/05/02 05:10:09;;;;;;;5.47;2.72;;;8.10;99.90;;;;;;5025345;28;20037;-74
2022/05/02 05:12:46;;;;;;;4.93;2.88;;;8.20;99.90;;;;;;5034120;28;20611;-74
2022/05/02 05:18:14;;;;;;;5.35;2.70;;;8.30;99.90;;;;;;5035856;28;20075;-75
2022/05/02 05:20:40;;;;;;;5.13;2.45;;;8.40;99.90;;;;;;5035711;28;20068;-74
2022/05/02 05:23:24;;;;;;;5.15;2.70;;;8.50;99.90;;;;;;5041515;28;20689;-74
2022/05/02 05:26:07;;;;;;;6.25;2.83;;;8.60;99.90;;;;;;5034049;28;20025;-74
2022/05/02 05:28:39;;;;;;;6.78;3.22;;;8.70;99.90;;;;;;5035550;28;20025;-74
2022/05/02 05:31:37;;;;;;;5.68;3.08;;;8.80;99.90;;;;;;5035341;28;20076;-74
2022/05/02 05:34:02;;;;;;;5.72;2.85;;;8.80;99.90;;;;;;5032267;28;20046;-74
2022/05/02 05:36:48;;;;;;;4.15;2.17;;;9.00;99.90;;;;;;5032135;28;20071;-74
2022/05/02 05:39:41;;;;;;;5.25;2.45;;;9.00;99.90;;;;;;5035299;28;20197;-74
2022/05/02 05:42:26;;;;;;;3.38;2.58;;;9.10;99.90;;;;;;5031861;28;20034;-74
2022/05/02 05:44:57;;;;;;;;;;;9.10;99.90;;;;;;5033388;28;20445;-74
2022/05/02 05:47:58;;;;;;;8.13;3.05;;;9.20;99.90;;;;;;5035379;28;19912;-74
2022/05/02 05:50:29;;;;;;;9.05;2.92;;;9.20;99.90;;;;;;5035002;28;20067;-74
2022/05/02 05:53:01;;;;;;;6.47;2.38;;;9.20;99.90;;;;;;5033922;28;20026;-74
2022/05/02 05:55:45;;;;;;;4.85;2.60;;;9.30;99.90;;;;;;5035093;28;20031;-74
2022/05/02 05:58:36;;;;;;;5.45;2.65;;;9.30;99.90;;;;;;5033923;28;20385;-74
2022/05/02 06:01:13;;;;;;;6.72;2.78;;;9.30;99.90;;;;;;5032795;28;20037;-75
2022/05/02 06:04:00;;;;;;;5.82;2.55;;;9.30;99.90;;;;;;5030781;28;20136;-75
2022/05/02 06:06:28;;;;;;;7.60;3.20;;;9.40;99.90;;;;;;5033475;28;20026;-75
2022/05/02 06:08:57;;;;;;;9.23;3.35;;;9.40;99.90;;;;;;5033668;28;20053;-75
2022/05/02 06:11:25;;;;;;;6.18;3.13;;;9.40;99.90;;;;;;5034270;28;20022;-75
2022/05/02 06:13:56;;;;;;;6.47;3.30;;;9.40;99.90;;;;;;5033259;28;20089;-75
2022/05/02 06:19:16;;;;;;;4.05;2.42;;;9.50;99.90;;;;;;5034539;28;20102;-74
2022/05/02 06:21:44;;;;;;;7.00;3.60;;;9.60;99.90;;;;;;5033822;28;20152;-73
2022/05/02 06:24:11;;;;;;;5.80;3.03;;;9.70;99.90;;;;;;5034600;28;20033;-73
2022/05/02 06:26:38;;;;;;;6.28;2.58;;;9.70;99.90;;;;;;5034624;28;20018;-74
2022/05/02 06:29:08;;;;;;;5.15;2.47;;;9.80;99.90;;;;;;5031653;28;20055;-73
2022/05/02 06:31:44;;;;;;;4.78;2.85;;;9.90;99.90;;;;;;5033940;28;20021;-73
2022/05/02 06:34:12;;;;;;;5.97;3.13;;;10.00;99.90;;;;;;5034352;28;20022;-74
2022/05/02 06:37:09;;;;;;;3.47;2.92;;;10.10;99.90;;;;;;5033352;28;20113;-74
2022/05/02 06:39:45;;;;;;;7.03;3.30;;;10.20;99.90;;;;;;5047849;28;20040;-74
2022/05/02 06:42:38;;;;;;;6.10;2.95;;;10.30;99.90;;;;;;5048917;28;20033;-73
2022/05/02 06:45:13;;;;;;;10.48;3.63;;;10.40;99.90;;;;;;5033298;28;20032;-74
2022/05/02 06:47:38;;;;;;;6.55;3.58;;;10.50;99.90;;;;;;5034150;28;20105;-74
2022/05/02 06:50:07;;;;;;;6.00;2.72;;;10.60;99.90;;;;;;5032135;28;20061;-74
2022/05/02 06:52:54;;;;;;;6.95;2.65;;;10.60;99.90;;;;;;5031799;28;20492;-74
2022/05/02 06:55:32;;;;;;;6.90;3.28;;;10.80;99.90;;;;;;5031458;28;20041;-74
2022/05/02 06:58:08;;;;;;;7.35;2.97;;;10.80;99.90;;;;;;5028480;28;20042;-73
2022/05/02 07:00:47;;;;;;;7.80;2.63;;;10.90;99.90;;;;;;5032037;28;20060;-73
2022/05/02 07:03:31;;;;;;;4.68;2.70;;;11.00;99.90;;;;;;5031719;28;20056;-73
2022/05/02 07:06:22;;;;;;;7.03;3.00;;;11.20;99.90;;;;;;5033206;28;20098;-74
2022/05/02 07:09:00;;;;;;;5.82;3.05;;;11.20;99.90;;;;;;5033771;28;20021;-74
2022/05/02 07:11:53;;;;;;;7.38;2.45;;;11.40;99.90;;;;;;5033442;28;20018;-74
2022/05/02 07:14:34;;;;;;;4.65;2.55;;;11.40;99.90;;;;;;5031611;28;20187;-74
2022/05/02 07:17:10;;;;;;;6.65;3.05;;;11.60;99.90;;;;;;5030403;28;20037;-74
2022/05/02 07:19:51;;;;;;;6.80;2.45;;;11.60;99.90;;;;;;5032831;28;20026;-74
2022/05/02 07:22:31;;;;;;;5.22;2.42;;;11.70;99.90;;;;;;5033024;28;20045;-73
2022/05/02 07:25:13;;;;;;;7.00;2.55;;;11.60;99.90;;;;;;5033640;28;20028;-75
2022/05/02 07:28:04;;;;;;;3.22;1.90;;;11.70;99.90;;;;;;5033582;28;20032;-73
2022/05/02 07:30:30;;;;;;;7.72;2.45;;;11.70;99.90;;;;;;5032972;28;20029;-74
2022/05/02 07:32:56;;;;;;;6.53;2.78;;;11.80;99.90;;;;;;5032139;28;20025;-74
2022/05/02 07:35:24;;;;;;;6.30;2.20;;;11.90;99.90;;;;;;5033348;28;20017;-74
2022/05/02 07:37:50;;;;;;;3.70;2.22;;;11.90;99.90;;;;;;5031664;28;20029;-73
2022/05/02 07:40:20;;;;;;;5.05;2.63;;;12.00;99.90;;;;;;5032950;28;20509;-73
2022/05/02 07:42:47;;;;;;;7.30;2.70;;;12.10;99.90;;;;;;5031231;28;20066;-76
2022/05/02 07:45:17;;;;;;;6.57;2.70;;;12.10;99.90;;;;;;5029677;28;20045;-74
2022/05/02 07:47:45;;;;;;;4.60;2.10;;;12.20;99.90;;;;;;5030381;28;20654;-74
2022/05/02 07:50:12;;;;;;;4.85;2.60;;;12.20;99.90;;;;;;5024044;28;20097;-73
2022/05/02 07:52:41;;;;;;;2.63;1.52;;;12.30;99.90;;;;;;5037686;28;20017;-73
2022/05/02 07:55:08;;;;;;;2.15;1.65;;;12.40;99.90;;;;;;5021612;28;20033;-74
2022/05/02 07:57:38;;;;;;;5.47;2.10;;;12.50;99.90;;;;;;5029988;28;20018;-74
2022/05/02 08:00:10;;;;;;;2.67;1.48;;;12.60;99.90;;;;;;5024079;28;20030;-73
2022/05/02 08:02:35;;;;;;;9.30;1.77;;;12.60;99.90;;;;;;5022911;28;20093;-74
2022/05/02 08:05:03;;;;;;;3.72;1.90;;;12.70;99.90;;;;;;5022927;28;20022;-74
2022/05/02 08:07:35;;;;;;;2.88;1.38;;;12.80;99.90;;;;;;5022880;28;20033;-74
2022/05/02 08:10:33;;;;;;;5.93;1.75;;;12.90;99.90;;;;;;5037955;28;20045;-74
2022/05/02 08:13:07;;;;;;;1.90;1.60;;;12.90;99.90;;;;;;5023481;28;20502;-74
2022/05/02 08:16:10;;;;;;;1.98;1.23;;;13.00;99.90;;;;;;5024793;28;20033;-73
2022/05/02 08:18:50;;;;;;;3.90;1.73;;;13.10;99.90;;;;;;5021074;28;20541;-73
2022/05/02 08:21:27;;;;;;;2.63;1.75;;;13.20;99.90;;;;;;5024136;28;20037;-74
2022/05/02 08:27:15;;;;;;;4.88;2.00;;;13.40;99.90;;;;;;5023638;28;20084;-74
2022/05/02 08:30:04;;;;;;;6.20;1.58;;;13.50;99.90;;;;;;5023151;28;20037;-74
2022/05/02 08:32:44;;;;;;;2.50;1.50;;;13.60;99.90;;;;;;5019365;28;20044;-74
2022/05/02 08:35:23;;;;;;;3.85;1.90;;;13.60;99.90;;;;;;5021667;28;20097;-75
2022/05/02 08:37:58;;;;;;;3.10;1.60;;;13.70;99.90;;;;;;5023598;28;21067;-75
2022/05/02 08:40:23;;;;;;;5.93;2.53;;;13.90;99.90;;;;;;5023275;28;20030;-74
2022/05/02 08:43:10;;;;;;;3.50;1.52;;;14.10;99.90;;;;;;5023819;28;20049;-74
2022/05/02 08:46:13;;;;;;;4.80;1.85;;;14.30;99.90;;;;;;5022119;28;20037;-75
2022/05/02 08:52:18;;;;;;;2.60;1.48;;;14.80;99.90;;;;;;5022991;28;20037;-74
2022/05/02 08:55:02;;;;;;;3.15;1.70;;;15.00;99.90;;;;;;5022395;28;20092;-74
2022/05/02 08:57:48;;;;;;;5.40;1.98;;;15.20;99.90;;;;;;5022442;28;20026;-74
2022/05/02 09:00:46;;;;;;;4.57;2.13;;;15.30;99.90;;;;;;5022314;28;20018;-73
2022/05/02 09:03:53;;;;;;;3.15;1.75;;;15.50;99.90;;;;;;5020450;28;20117;-74
2022/05/02 09:06:55;;;;;;;1.98;1.25;;;15.50;99.90;;;;;;5023001;28;20054;-75
2022/05/02 09:09:48;;;;;;;4.35;1.90;;;15.60;99.90;;;;;;5022789;28;20049;-75
2022/05/02 09:12:21;;;;;;;4.90;2.08;;;15.50;99.90;;;;;;5022222;28;20081;-74
2022/05/02 09:15:35;;;;;;;4.13;1.90;;;15.60;99.90;;;;;;5024031;28;20033;-75
2022/05/02 09:18:17;;;;;;;2.80;1.70;;;15.50;99.90;;;;;;5019824;28;20132;-75
2022/05/02 09:21:24;;;;;;;1.58;1.20;;;15.60;99.90;;;;;;5026350;28;20041;-73
2022/05/02 09:24:28;;;;;;;5.88;2.35;;;15.60;99.90;;;;;;5016259;28;20049;-75
2022/05/02 09:27:24;;;;;;;1.73;1.33;;;15.70;99.90;;;;;;5024960;28;20061;-74
2022/05/02 09:30:14;;;;;;;2.92;1.30;;;15.80;99.90;;;;;;5042062;28;20041;-76
2022/05/02 09:32:56;;;;;;;4.07;2.00;;;15.90;99.90;;;;;;5024048;28;20037;-76
2022/05/02 09:35:49;;;;;;;2.88;1.52;;;16.10;99.90;;;;;;5025546;28;20032;-76
2022/05/02 09:38:27;;;;;;;4.38;1.88;;;16.10;99.90;;;;;;5025510;28;20017;-75
2022/05/02 09:41:34;;;;;;;7.38;2.33;;;16.10;99.90;;;;;;5025407;28;20029;-75
2022/05/02 09:50:34;;;;;;;3.60;2.13;;;16.30;99.90;;;;;;5023552;28;20044;-74
2022/05/02 09:53:28;;;;;;;4.00;1.80;;;16.40;99.90;;;;;;5022185;28;20516;-76
2022/05/02 09:59:07;;;;;;;20.60;3.65;;;16.60;99.90;;;;;;5024334;28;20064;-77
2022/05/02 10:01:34;;;;;;;4.03;2.20;;;16.70;99.90;;;;;;5026968;28;20057;-77
2022/05/02 10:04:30;;;;;;;3.33;2.10;;;16.60;99.90;;;;;;5023111;28;20053;-74
2022/05/02 10:07:07;;;;;;;3.58;2.13;;;16.60;99.90;;;;;;5025478;28;20367;-75
2022/05/02 10:10:01;;;;;;;5.85;2.03;;;16.80;99.90;;;;;;5031129;28;20022;-74
2022/05/02 10:12:52;;;;;;;4.25;2.28;;;16.90;99.90;;;;;;5025230;28;20053;-75
2022/05/02 10:15:36;;;;;;;6.68;2.45;;;17.10;99.90;;;;;;5024436;28;20041;-74
2022/05/02 10:18:21;;;;;;;3.30;2.13;;;17.30;99.90;;;;;;5024697;28;20098;-74
2022/05/02 10:21:07;;;;;;;5.25;2.80;;;17.50;99.90;;;;;;5024937;28;20025;-74
2022/05/02 10:23:45;;;;;;;5.57;2.35;;;17.40;99.90;;;;;;5023888;28;20061;-73
2022/05/02 10:26:36;;;;;;;5.93;2.97;;;17.20;99.90;;;;;;5025777;28;20594;-74
2022/05/02 10:29:38;;;;;;;3.60;1.75;;;17.20;99.90;;;;;;5025447;28;20026;-73
2022/05/02 10:32:14;;;;;;;5.80;2.60;;;17.30;99.90;;;;;;5024237;28;20034;-73
2022/05/02 10:34:45;;;;;;;5.97;2.85;;;17.40;99.90;;;;;;5024766;28;20037;-74
2022/05/02 10:37:14;;;;;;;8.73;2.58;;;17.50;99.90;;;;;;5025824;28;20018;-73
2022/05/02 10:39:47;;;;;;;5.82;2.35;;;17.50;99.90;;;;;;5025041;28;20046;-73
2022/05/02 10:42:18;;;;;;;6.68;2.35;;;17.70;99.90;;;;;;5024126;28;20033;-74
2022/05/02 10:45:04;;;;;;;3.83;2.20;;;17.90;99.90;;;;;;5024622;28;20833;-74
2022/05/02 10:47:51;;;;;;;5.78;2.70;;;18.00;99.90;;;;;;5024366;28;20038;-73
2022/05/02 10:50:35;;;;;;;4.20;2.35;;;18.20;99.90;;;;;;5024179;28;20041;-73
2022/05/02 10:53:30;;;;;;;5.30;2.37;;;18.20;99.90;;;;;;5024717;28;20038;-72
2022/05/02 10:55:59;;;;;;;4.30;2.20;;;18.40;99.90;;;;;;5025518;28;20143;-73
2022/05/02 10:58:27;;;;;;;7.72;2.42;;;18.40;99.90;;;;;;5023791;28;20018;-73
2022/05/02 11:01:08;;;;;;;7.47;2.30;;;18.30;99.90;;;;;;5025850;28;20026;-73
2022/05/02 11:03:44;;;;;;;10.57;2.75;;;18.20;99.90;;;;;;5023158;28;20034;-74
2022/05/02 11:06:31;;;;;;;6.28;2.45;;;18.40;99.90;;;;;;5024259;28;20026;-73
2022/05/02 11:09:04;;;;;;;4.55;2.70;;;18.60;99.90;;;;;;5023877;28;20029;-73
2022/05/02 11:11:48;;;;;;;4.82;2.50;;;18.80;99.90;;;;;;5023562;28;20038;-73
2022/05/02 11:14:26;;;;;;;;;;;19.10;99.90;;;;;;5025616;28;20069;-71
2022/05/02 11:17:32;;;;;;;4.85;2.67;;;19.10;99.90;;;;;;5023775;28;19910;-73
2022/05/02 11:23:33;;;;;;;4.10;2.10;;;18.80;99.90;;;;;;5024783;28;20044;-73
2022/05/02 11:26:27;;;;;;;4.72;2.47;;;18.40;99.90;;;;;;5024439;28;20489;-72
2022/05/02 11:29:12;;;;;;;6.65;2.35;;;18.10;99.90;;;;;;5024016;28;20026;-73
2022/05/02 11:31:38;;;;;;;3.33;2.00;;;18.00;99.90;;;;;;5023792;28;20022;-72
2022/05/02 11:34:41;;;;;;;4.53;2.63;;;18.00;99.90;;;;;;5025416;28;20041;-73
2022/05/02 11:37:33;;;;;;;4.35;2.65;;;18.00;99.90;;;;;;5023317;28;20029;-73
2022/05/02 11:40:05;;;;;;;3.97;2.28;;;18.10;99.90;;;;;;5023616;28;20093;-74
2022/05/02 11:42:33;;;;;;;3.72;2.30;;;18.10;99.90;;;;;;5023542;28;20038;-73
2022/05/02 11:45:09;;;;;;;4.78;2.53;;;18.00;99.90;;;;;;5024980;28;20096;-72
2022/05/02 11:48:11;;;;;;;6.72;2.78;;;18.00;99.90;;;;;;5024869;28;20025;-73
2022/05/02 11:50:44;;;;;;;5.88;3.25;;;18.10;99.90;;;;;;5023874;28;20081;-72
2022/05/02 11:53:13;;;;;;;4.32;2.35;;;18.30;99.90;;;;;;5022876;28;20025;-73
2022/05/02 11:55:40;;;;;;;6.45;2.88;;;18.30;99.90;;;;;;5023051;28;20050;-73
2022/05/02 11:58:18;;;;;;;5.70;2.97;;;18.40;99.90;;;;;;5023330;28;20021;-73
2022/05/02 12:00:52;;;;;;;5.90;2.30;;;18.70;99.90;;;;;;5024645;28;20029;-72
2022/05/02 12:03:24;;;;;;;7.65;2.70;;;19.10;99.90;;;;;;5025130;28;20112;-73
2022/05/02 12:05:55;;;;;;;8.90;2.83;;;19.30;99.90;;;;;;5026255;28;20059;-73
2022/05/02 12:08:32;;;;;;;4.32;2.85;;;19.20;99.90;;;;;;5024829;28;20037;-74
2022/05/02 12:11:12;;;;;;;5.20;2.75;;;19.20;99.90;;;;;;5022601;28;20082;-73
2022/05/02 12:13:44;;;;;;;4.90;2.72;;;19.30;99.90;;;;;;5020292;28;20514;-73
2022/05/02 12:16:15;;;;;;;7.68;3.00;;;19.30;99.90;;;;;;5024613;28;20540;-74
2022/05/02 12:18:55;;;;;;;8.48;2.30;;;19.10;99.90;;;;;;5025522;28;20026;-73
2022/05/02 12:21:45;;;;;;;6.00;3.05;;;18.90;99.90;;;;;;5026807;28;20029;-73
2022/05/02 12:24:26;;;;;;;9.43;2.63;;;18.80;99.90;;;;;;5026668;28;21318;-73
2022/05/02 12:26:53;;;;;;;4.47;2.17;;;19.10;99.90;;;;;;5021229;28;20037;-73
2022/05/02 12:29:20;;;;;;;6.45;2.83;;;19.30;99.90;;;;;;5022847;28;20061;-73
2022/05/02 12:32:02;;;;;;;3.40;2.40;;;19.50;99.90;;;;;;5029871;28;20049;-73
2022/05/02 12:34:40;;;;;;;5.88;2.72;;;19.50;99.90;;;;;;5022155;28;20029;-75
2022/05/02 12:37:38;;;;;;;6.75;3.35;;;19.40;99.90;;;;;;5023878;28;20048;-74
2022/05/02 12:40:18;;;;;;;4.32;2.70;;;19.30;99.90;;;;;;5022799;28;20602;-74
2022/05/02 12:42:55;;;;;;;5.07;2.80;;;19.30;99.90;;;;;;5024636;28;20487;-74
2022/05/02 12:45:23;;;;;;;8.07;3.45;;;19.20;99.90;;;;;;5021907;28;20026;-74
2022/05/02 12:48:00;;;;;;;6.50;3.08;;;19.20;99.90;;;;;;5023760;28;20033;-73
2022/05/02 12:50:28;;;;;;;10.48;3.30;;;19.20;99.90;;;;;;5023627;28;20034;-73
2022/05/02 12:52:56;;;;;;;4.88;2.65;;;19.10;99.90;;;;;;5021135;28;20022;-74
2022/05/02 12:55:24;;;;;;;5.85;3.15;;;19.10;99.90;;;;;;5028093;28;20469;-74
2022/05/02 13:00:45;;;;;;;4.82;3.03;;;18.90;99.90;;;;;;5025004;28;20088;-74
2022/05/02 13:03:10;;;;;;;9.30;3.85;;;19.00;99.90;;;;;;5028656;28;20037;-74
2022/05/02 13:05:39;;;;;;;4.68;2.58;;;19.10;99.90;;;;;;5026073;28;20086;-74
2022/05/02 13:08:11;;;;;;;6.55;3.28;;;19.10;99.90;;;;;;5030339;28;20021;-73
2022/05/02 13:10:39;;;;;;;5.22;2.72;;;19.40;99.90;;;;;;5025143;28;20037;-74
2022/05/02 13:13:12;;;;;;;5.45;2.85;;;19.70;99.90;;;;;;5027659;28;20037;-75
2022/05/02 13:15:46;;;;;;;6.70;2.85;;;19.90;99.90;;;;;;5026551;28;20059;-73
2022/05/02 13:18:16;;;;;;;3.15;2.00;;;20.20;99.90;;;;;;5027117;28;20034;-74
2022/05/02 13:20:56;;;;;;;9.00;2.60;;;20.30;99.90;;;;;;5026449;28;20026;-74
2022/05/02 13:23:22;;;;;;;3.72;1.90;;;20.30;99.90;;;;;;5025598;28;20037;-73
2022/05/02 13:26:27;;;;;;;3.75;1.83;;;20.00;99.90;;;;;;5026395;28;20018;-75
2022/05/02 13:29:28;;;;;;;5.77;2.40;;;19.80;99.90;;;;;;5032776;28;20029;-73
2022/05/02 13:32:02;;;;;;;3.40;1.95;;;20.20;99.90;;;;;;5025927;28;20304;-74
2022/05/02 13:34:31;;;;;;;3.75;1.90;;;20.50;99.90;;;;;;5026055;28;20029;-73
2022/05/02 13:37:34;;;;;;;5.28;2.28;;;20.60;99.90;;;;;;5026071;28;20082;-77
2022/05/02 13:40:08;;;;;;;5.28;2.38;;;20.80;99.90;;;;;;5019271;28;20042;-76
2022/05/02 13:42:35;;;;;;;8.85;2.25;;;21.20;99.90;;;;;;5024346;28;20045;-74
2022/05/02 13:45:04;;;;;;;4.72;2.67;;;21.40;99.90;;;;;;5025967;28;20085;-74
2022/05/02 13:47:46;;;;;;;5.25;2.58;;;21.30;99.90;;;;;;5026133;28;20032;-74
2022/05/02 13:50:18;;;;;;;6.65;1.80;;;20.80;99.90;;;;;;5026820;28;20064;-74
2022/05/02 13:52:49;;;;;;;5.95;2.75;;;20.20;99.90;;;;;;5025265;28;20017;-73
2022/05/02 13:55:54;;;;;;;2.45;1.90;;;20.00;99.90;;;;;;5025675;28;20031;-75
2022/05/02 13:58:44;;;;;;;2.78;2.08;;;20.00;99.90;;;;;;5012083;28;20081;-74
2022/05/02 14:01:49;;;;;;;5.47;2.28;;;20.60;99.90;;;;;;5025375;28;20089;-74